sensor_id;sensor_type;location;lat;lon;timestamp;P1;durP1;ratioP1;P2;durP2;ratioP2
29984;SDS011;17387;42.690;23.328;2022-07-06T00:01:07;18.98;;;16.60;;
29984;SDS011;17387;42.690;23.328;2022-07-06T00:03:32;19.85;;;17.45;;
29984;SDS011;17387;42.690;23.328;2022-07-06T00:05:58;22.85;;;19.33;;
29984;SDS011;17387;42.690;23.328;2022-07-06T00:08:23;23.23;;;20.77;;
29984;SDS011;17387;42.690;23.328;2022-07-06T00:10:49;26.98;;;21.55;;
29984;SDS011;17387;42.690;23.328;2022-07-06T00:13:14;28.58;;;21.98;;
29984;SDS011;17387;42.690;23.328;2022-07-06T00:15:39;29.38;;;22.25;;
29984;SDS011;17387;42.690;23.328;2022-07-06T00:18:05;29.85;;;23.15;;
29984;SDS011;17387;42.690;23.328;2022-07-06T00:20:30;28.60;;;23.35;;
29984;SDS011;17387;42.690;23.328;2022-07-06T00:22:56;30.45;;;21.48;;
29984;SDS011;17387;42.690;23.328;2022-07-06T00:25:21;30.20;;;21.90;;
29984;SDS011;17387;42.690;23.328;2022-07-06T00:27:47;27.42;;;21.65;;
29984;SDS011;17387;42.690;23.328;2022-07-06T00:30:12;28.20;;;22.35;;
29984;SDS011;17387;42.690;23.328;2022-07-06T00:32:38;29.63;;;23.30;;
29984;SDS011;17387;42.690;23.328;2022-07-06T00:35:03;28.00;;;22.55;;
29984;SDS011;17387;42.690;23.328;2022-07-06T00:37:29;27.23;;;22.17;;
29984;SDS011;17387;42.690;23.328;2022-07-06T00:39:54;28.48;;;22.58;;
29984;SDS011;17387;42.690;23.328;2022-07-06T00:42:20;31.42;;;23.80;;
29984;SDS011;17387;42.690;23.328;2022-07-06T00:44:45;29.30;;;23.33;;
29984;SDS011;17387;42.690;23.328;2022-07-06T00:47:11;33.13;;;24.08;;
29984;SDS011;17387;42.690;23.328;2022-07-06T00:49:36;27.45;;;23.70;;
29984;SDS011;17387;42.690;23.328;2022-07-06T00:52:20;33.75;;;24.27;;
29984;SDS011;17387;42.690;23.328;2022-07-06T00:54:45;29.58;;;25.75;;
29984;SDS011;17387;42.690;23.328;2022-07-06T00:57:12;30.83;;;24.98;;
29984;SDS011;17387;42.690;23.328;2022-07-06T00:59:37;41.55;;;32.35;;
29984;SDS011;17387;42.690;23.328;2022-07-06T01:02:04;46.42;;;38.00;;
29984;SDS011;17387;42.690;23.328;2022-07-06T01:04:29;51.50;;;39.25;;
29984;SDS011;17387;42.690;23.328;2022-07-06T01:06:55;52.88;;;41.72;;
29984;SDS011;17387;42.690;23.328;2022-07-06T01:09:22;52.15;;;42.10;;
29984;SDS011;17387;42.690;23.328;2022-07-06T01:11:47;47.28;;;40.17;;
29984;SDS011;17387;42.690;23.328;2022-07-06T01:14:14;47.30;;;39.20;;
29984;SDS011;17387;42.690;23.328;2022-07-06T01:16:40;48.72;;;39.28;;
29984;SDS011;17387;42.690;23.328;2022-07-06T01:19:06;49.05;;;38.75;;
29984;SDS011;17387;42.690;23.328;2022-07-06T01:21:31;47.88;;;40.05;;
29984;SDS011;17387;42.690;23.328;2022-07-06T01:23:56;47.28;;;39.35;;
29984;SDS011;17387;42.690;23.328;2022-07-06T01:26:22;50.17;;;39.28;;
29984;SDS011;17387;42.690;23.328;2022-07-06T01:28:51;44.90;;;37.15;;
29984;SDS011;17387;42.690;23.328;2022-07-06T01:31:18;49.13;;;39.45;;
29984;SDS011;17387;42.690;23.328;2022-07-06T01:33:51;48.53;;;39.30;;
29984;SDS011;17387;42.690;23.328;2022-07-06T01:36:18;48.40;;;37.38;;
29984;SDS011;17387;42.690;23.328;2022-07-06T01:38:47;44.08;;;35.67;;
29984;SDS011;17387;42.690;23.328;2022-07-06T01:41:13;37.25;;;29.92;;
29984;SDS011;17387;42.690;23.328;2022-07-06T01:43:39;38.05;;;29.05;;
29984;SDS011;17387;42.690;23.328;2022-07-06T01:46:04;32.65;;;25.48;;
29984;SDS011;17387;42.690;23.328;2022-07-06T01:48:30;31.95;;;24.90;;
29984;SDS011;17387;42.690;23.328;2022-07-06T01:50:56;30.85;;;24.02;;
29984;SDS011;17387;42.690;23.328;2022-07-06T01:53:21;29.50;;;22.88;;
29984;SDS011;17387;42.690;23.328;2022-07-06T01:55:46;25.38;;;21.25;;
29984;SDS011;17387;42.690;23.328;2022-07-06T01:58:12;26.20;;;20.73;;
29984;SDS011;17387;42.690;23.328;2022-07-06T02:00:37;21.23;;;18.30;;
29984;SDS011;17387;42.690;23.328;2022-07-06T02:03:03;21.33;;;17.70;;
29984;SDS011;17387;42.690;23.328;2022-07-06T02:05:28;24.08;;;18.40;;
29984;SDS011;17387;42.690;23.328;2022-07-06T02:07:54;19.42;;;17.15;;
29984;SDS011;17387;42.690;23.328;2022-07-06T02:10:19;20.90;;;17.88;;
29984;SDS011;17387;42.690;23.328;2022-07-06T02:12:45;21.10;;;17.30;;
29984;SDS011;17387;42.690;23.328;2022-07-06T02:15:11;21.10;;;17.30;;
29984;SDS011;17387;42.690;23.328;2022-07-06T02:17:36;20.35;;;17.67;;
29984;SDS011;17387;42.690;23.328;2022-07-06T02:20:03;20.60;;;17.65;;
29984;SDS011;17387;42.690;23.328;2022-07-06T02:22:29;22.05;;;16.88;;
29984;SDS011;17387;42.690;23.328;2022-07-06T02:24:55;19.00;;;15.93;;
29984;SDS011;17387;42.690;23.328;2022-07-06T02:27:20;24.98;;;16.98;;
29984;SDS011;17387;42.690;23.328;2022-07-06T02:29:45;19.58;;;15.88;;
29984;SDS011;17387;42.690;23.328;2022-07-06T02:32:11;19.23;;;16.23;;
29984;SDS011;17387;42.690;23.328;2022-07-06T02:34:36;20.60;;;16.75;;
29984;SDS011;17387;42.690;23.328;2022-07-06T02:37:02;20.30;;;16.45;;
29984;SDS011;17387;42.690;23.328;2022-07-06T02:39:27;20.55;;;16.67;;
29984;SDS011;17387;42.690;23.328;2022-07-06T02:41:53;19.50;;;16.10;;
29984;SDS011;17387;42.690;23.328;2022-07-06T02:44:18;18.52;;;15.85;;
29984;SDS011;17387;42.690;23.328;2022-07-06T02:46:44;20.33;;;16.00;;
29984;SDS011;17387;42.690;23.328;2022-07-06T02:49:09;18.55;;;15.25;;
29984;SDS011;17387;42.690;23.328;2022-07-06T02:51:34;17.42;;;15.73;;
29984;SDS011;17387;42.690;23.328;2022-07-06T02:54:00;18.73;;;15.93;;
29984;SDS011;17387;42.690;23.328;2022-07-06T02:56:25;18.08;;;15.13;;
29984;SDS011;17387;42.690;23.328;2022-07-06T02:58:51;19.20;;;16.05;;
29984;SDS011;17387;42.690;23.328;2022-07-06T03:01:16;21.88;;;16.02;;
29984;SDS011;17387;42.690;23.328;2022-07-06T03:03:41;22.23;;;15.93;;
29984;SDS011;17387;42.690;23.328;2022-07-06T03:06:07;18.83;;;15.60;;
29984;SDS011;17387;42.690;23.328;2022-07-06T03:08:32;22.13;;;15.75;;
29984;SDS011;17387;42.690;23.328;2022-07-06T03:10:59;18.92;;;15.82;;
29984;SDS011;17387;42.690;23.328;2022-07-06T03:13:25;18.02;;;16.13;;
29984;SDS011;17387;42.690;23.328;2022-07-06T03:15:51;16.83;;;14.73;;
29984;SDS011;17387;42.690;23.328;2022-07-06T03:18:16;17.50;;;14.75;;
29984;SDS011;17387;42.690;23.328;2022-07-06T03:20:42;17.50;;;14.68;;
29984;SDS011;17387;42.690;23.328;2022-07-06T03:23:07;15.68;;;14.05;;
29984;SDS011;17387;42.690;23.328;2022-07-06T03:25:33;14.77;;;12.65;;
29984;SDS011;17387;42.690;23.328;2022-07-06T03:27:58;14.48;;;12.07;;
29984;SDS011;17387;42.690;23.328;2022-07-06T03:30:24;14.95;;;10.43;;
29984;SDS011;17387;42.690;23.328;2022-07-06T03:32:49;12.95;;;10.82;;
29984;SDS011;17387;42.690;23.328;2022-07-06T03:35:14;14.57;;;10.57;;
29984;SDS011;17387;42.690;23.328;2022-07-06T03:37:40;13.38;;;11.02;;
29984;SDS011;17387;42.690;23.328;2022-07-06T03:40:06;15.90;;;10.95;;
29984;SDS011;17387;42.690;23.328;2022-07-06T03:42:32;12.80;;;10.20;;
29984;SDS011;17387;42.690;23.328;2022-07-06T03:44:57;13.95;;;9.60;;
29984;SDS011;17387;42.690;23.328;2022-07-06T03:47:23;12.43;;;9.25;;
29984;SDS011;17387;42.690;23.328;2022-07-06T03:49:48;11.93;;;10.07;;
29984;SDS011;17387;42.690;23.328;2022-07-06T03:52:13;10.85;;;9.30;;
29984;SDS011;17387;42.690;23.328;2022-07-06T03:54:39;11.57;;;9.32;;
29984;SDS011;17387;42.690;23.328;2022-07-06T03:57:04;12.75;;;9.25;;
29984;SDS011;17387;42.690;23.328;2022-07-06T03:59:30;10.80;;;9.48;;
29984;SDS011;17387;42.690;23.328;2022-07-06T04:01:55;16.17;;;10.02;;
29984;SDS011;17387;42.690;23.328;2022-07-06T04:04:21;10.13;;;9.13;;
29984;SDS011;17387;42.690;23.328;2022-07-06T04:06:46;10.73;;;9.45;;
29984;SDS011;17387;42.690;23.328;2022-07-06T04:09:12;13.10;;;8.93;;
29984;SDS011;17387;42.690;23.328;2022-07-06T04:11:37;13.73;;;9.45;;
29984;SDS011;17387;42.690;23.328;2022-07-06T04:14:03;13.90;;;9.50;;
29984;SDS011;17387;42.690;23.328;2022-07-06T04:16:28;13.00;;;9.35;;
29984;SDS011;17387;42.690;23.328;2022-07-06T04:18:53;12.00;;;9.63;;
29984;SDS011;17387;42.690;23.328;2022-07-06T04:21:19;13.05;;;9.52;;
29984;SDS011;17387;42.690;23.328;2022-07-06T04:23:44;14.63;;;9.38;;
29984;SDS011;17387;42.690;23.328;2022-07-06T04:26:10;15.60;;;9.63;;
29984;SDS011;17387;42.690;23.328;2022-07-06T04:28:36;10.63;;;9.15;;
29984;SDS011;17387;42.690;23.328;2022-07-06T04:31:02;12.38;;;8.82;;
29984;SDS011;17387;42.690;23.328;2022-07-06T04:33:27;11.82;;;9.40;;
29984;SDS011;17387;42.690;23.328;2022-07-06T04:35:53;11.00;;;9.68;;
29984;SDS011;17387;42.690;23.328;2022-07-06T04:38:18;15.52;;;9.75;;
29984;SDS011;17387;42.690;23.328;2022-07-06T04:40:44;16.05;;;10.27;;
29984;SDS011;17387;42.690;23.328;2022-07-06T04:43:11;18.10;;;10.80;;
29984;SDS011;17387;42.690;23.328;2022-07-06T04:45:37;13.35;;;10.73;;
29984;SDS011;17387;42.690;23.328;2022-07-06T04:48:03;13.35;;;10.68;;
29984;SDS011;17387;42.690;23.328;2022-07-06T04:50:29;14.65;;;12.15;;
29984;SDS011;17387;42.690;23.328;2022-07-06T04:52:54;18.25;;;12.88;;
29984;SDS011;17387;42.690;23.328;2022-07-06T04:55:20;15.05;;;12.13;;
29984;SDS011;17387;42.690;23.328;2022-07-06T04:57:45;15.95;;;12.57;;
29984;SDS011;17387;42.690;23.328;2022-07-06T05:00:11;17.95;;;13.70;;
29984;SDS011;17387;42.690;23.328;2022-07-06T05:02:37;17.58;;;14.27;;
29984;SDS011;17387;42.690;23.328;2022-07-06T05:05:03;18.00;;;13.68;;
29984;SDS011;17387;42.690;23.328;2022-07-06T05:07:28;21.15;;;14.77;;
29984;SDS011;17387;42.690;23.328;2022-07-06T05:09:56;22.90;;;15.40;;
29984;SDS011;17387;42.690;23.328;2022-07-06T05:12:21;19.85;;;15.07;;
29984;SDS011;17387;42.690;23.328;2022-07-06T05:14:46;20.35;;;15.32;;
29984;SDS011;17387;42.690;23.328;2022-07-06T05:17:12;23.20;;;16.55;;
29984;SDS011;17387;42.690;23.328;2022-07-06T05:19:37;31.17;;;18.45;;
29984;SDS011;17387;42.690;23.328;2022-07-06T05:22:03;24.20;;;17.02;;
29984;SDS011;17387;42.690;23.328;2022-07-06T05:24:28;27.02;;;17.02;;
29984;SDS011;17387;42.690;23.328;2022-07-06T05:26:54;21.92;;;17.33;;
29984;SDS011;17387;42.690;23.328;2022-07-06T05:29:19;36.65;;;18.63;;
29984;SDS011;17387;42.690;23.328;2022-07-06T05:31:44;24.50;;;18.67;;
29984;SDS011;17387;42.690;23.328;2022-07-06T05:34:10;24.95;;;16.67;;
29984;SDS011;17387;42.690;23.328;2022-07-06T05:36:36;22.55;;;15.48;;
29984;SDS011;17387;42.690;23.328;2022-07-06T05:39:01;25.38;;;16.48;;
29984;SDS011;17387;42.690;23.328;2022-07-06T05:41:27;21.83;;;16.17;;
29984;SDS011;17387;42.690;23.328;2022-07-06T05:43:52;21.58;;;15.65;;
29984;SDS011;17387;42.690;23.328;2022-07-06T05:46:18;23.65;;;14.88;;
29984;SDS011;17387;42.690;23.328;2022-07-06T05:48:43;23.60;;;14.68;;
29984;SDS011;17387;42.690;23.328;2022-07-06T05:51:27;22.08;;;15.27;;
29984;SDS011;17387;42.690;23.328;2022-07-06T05:53:53;27.13;;;16.55;;
29984;SDS011;17387;42.690;23.328;2022-07-06T05:56:18;22.17;;;15.48;;
29984;SDS011;17387;42.690;23.328;2022-07-06T05:58:44;19.30;;;14.38;;
29984;SDS011;17387;42.690;23.328;2022-07-06T06:01:09;19.73;;;14.43;;
29984;SDS011;17387;42.690;23.328;2022-07-06T06:03:35;19.13;;;14.43;;
29984;SDS011;17387;42.690;23.328;2022-07-06T06:06:00;18.85;;;14.18;;
29984;SDS011;17387;42.690;23.328;2022-07-06T06:08:26;19.00;;;14.73;;
29984;SDS011;17387;42.690;23.328;2022-07-06T06:10:52;19.88;;;14.27;;
29984;SDS011;17387;42.690;23.328;2022-07-06T06:13:18;16.35;;;12.77;;
29984;SDS011;17387;42.690;23.328;2022-07-06T06:15:43;16.42;;;13.82;;
29984;SDS011;17387;42.690;23.328;2022-07-06T06:18:09;20.90;;;14.23;;
29984;SDS011;17387;42.690;23.328;2022-07-06T06:20:34;19.42;;;14.35;;
29984;SDS011;17387;42.690;23.328;2022-07-06T06:23:00;21.30;;;14.02;;
29984;SDS011;17387;42.690;23.328;2022-07-06T06:25:35;21.75;;;14.00;;
29984;SDS011;17387;42.690;23.328;2022-07-06T06:28:03;20.27;;;13.98;;
29984;SDS011;17387;42.690;23.328;2022-07-06T06:30:30;32.92;;;15.65;;
29984;SDS011;17387;42.690;23.328;2022-07-06T06:35:34;17.85;;;14.18;;
29984;SDS011;17387;42.690;23.328;2022-07-06T06:38:00;31.55;;;16.52;;
29984;SDS011;17387;42.690;23.328;2022-07-06T06:40:25;37.40;;;16.08;;
29984;SDS011;17387;42.690;23.328;2022-07-06T06:42:51;19.17;;;14.57;;
29984;SDS011;17387;42.690;23.328;2022-07-06T06:45:16;21.73;;;15.38;;
29984;SDS011;17387;42.690;23.328;2022-07-06T06:47:42;21.33;;;15.57;;
29984;SDS011;17387;42.690;23.328;2022-07-06T06:50:07;19.50;;;14.77;;
29984;SDS011;17387;42.690;23.328;2022-07-06T06:52:33;20.80;;;14.20;;
29984;SDS011;17387;42.690;23.328;2022-07-06T06:54:58;24.30;;;16.27;;
29984;SDS011;17387;42.690;23.328;2022-07-06T06:57:24;17.50;;;14.98;;
29984;SDS011;17387;42.690;23.328;2022-07-06T06:59:50;16.80;;;15.10;;
29984;SDS011;17387;42.690;23.328;2022-07-06T07:02:15;18.50;;;15.25;;
29984;SDS011;17387;42.690;23.328;2022-07-06T07:04:41;17.17;;;13.93;;
29984;SDS011;17387;42.690;23.328;2022-07-06T07:07:06;23.73;;;14.70;;
29984;SDS011;17387;42.690;23.328;2022-07-06T07:09:32;16.25;;;14.23;;
29984;SDS011;17387;42.690;23.328;2022-07-06T07:11:57;19.13;;;15.23;;
29984;SDS011;17387;42.690;23.328;2022-07-06T07:14:23;18.38;;;14.02;;
29984;SDS011;17387;42.690;23.328;2022-07-06T07:16:48;16.98;;;14.48;;
29984;SDS011;17387;42.690;23.328;2022-07-06T07:19:14;16.88;;;14.63;;
29984;SDS011;17387;42.690;23.328;2022-07-06T07:21:39;21.10;;;15.13;;
29984;SDS011;17387;42.690;23.328;2022-07-06T07:24:05;21.33;;;15.32;;
29984;SDS011;17387;42.690;23.328;2022-07-06T07:26:32;17.67;;;15.13;;
29984;SDS011;17387;42.690;23.328;2022-07-06T07:28:57;19.58;;;15.60;;
29984;SDS011;17387;42.690;23.328;2022-07-06T07:31:23;21.13;;;16.40;;
29984;SDS011;17387;42.690;23.328;2022-07-06T07:33:48;19.23;;;16.00;;
29984;SDS011;17387;42.690;23.328;2022-07-06T07:36:14;19.30;;;15.77;;
29984;SDS011;17387;42.690;23.328;2022-07-06T07:38:39;19.05;;;16.05;;
29984;SDS011;17387;42.690;23.328;2022-07-06T07:41:04;18.38;;;16.00;;
29984;SDS011;17387;42.690;23.328;2022-07-06T07:43:31;19.85;;;16.25;;
29984;SDS011;17387;42.690;23.328;2022-07-06T07:45:56;17.88;;;16.05;;
29984;SDS011;17387;42.690;23.328;2022-07-06T07:48:22;22.08;;;16.65;;
29984;SDS011;17387;42.690;23.328;2022-07-06T07:50:47;19.27;;;16.98;;
29984;SDS011;17387;42.690;23.328;2022-07-06T07:53:13;23.55;;;15.10;;
29984;SDS011;17387;42.690;23.328;2022-07-06T07:55:38;17.70;;;15.48;;
29984;SDS011;17387;42.690;23.328;2022-07-06T07:58:04;17.15;;;14.40;;
29984;SDS011;17387;42.690;23.328;2022-07-06T08:00:29;18.95;;;14.90;;
29984;SDS011;17387;42.690;23.328;2022-07-06T08:02:55;15.30;;;13.48;;
29984;SDS011;17387;42.690;23.328;2022-07-06T08:05:20;18.48;;;14.35;;
29984;SDS011;17387;42.690;23.328;2022-07-06T08:07:46;15.00;;;13.10;;
29984;SDS011;17387;42.690;23.328;2022-07-06T08:10:11;16.50;;;14.80;;
29984;SDS011;17387;42.690;23.328;2022-07-06T08:12:37;19.45;;;15.65;;
29984;SDS011;17387;42.690;23.328;2022-07-06T08:15:03;20.17;;;16.30;;
29984;SDS011;17387;42.690;23.328;2022-07-06T08:17:30;19.95;;;15.88;;
29984;SDS011;17387;42.690;23.328;2022-07-06T08:19:55;21.38;;;16.27;;
29984;SDS011;17387;42.690;23.328;2022-07-06T08:22:21;19.42;;;15.18;;
29984;SDS011;17387;42.690;23.328;2022-07-06T08:24:46;16.10;;;14.32;;
29984;SDS011;17387;42.690;23.328;2022-07-06T08:27:12;19.17;;;14.25;;
29984;SDS011;17387;42.690;23.328;2022-07-06T08:29:37;17.80;;;15.45;;
29984;SDS011;17387;42.690;23.328;2022-07-06T08:32:03;15.93;;;14.05;;
29984;SDS011;17387;42.690;23.328;2022-07-06T08:34:29;18.27;;;15.30;;
29984;SDS011;17387;42.690;23.328;2022-07-06T08:36:54;21.25;;;14.23;;
29984;SDS011;17387;42.690;23.328;2022-07-06T08:39:20;16.50;;;14.30;;
29984;SDS011;17387;42.690;23.328;2022-07-06T08:41:45;15.65;;;13.02;;
29984;SDS011;17387;42.690;23.328;2022-07-06T08:44:13;17.48;;;12.90;;
29984;SDS011;17387;42.690;23.328;2022-07-06T08:46:40;17.85;;;12.88;;
29984;SDS011;17387;42.690;23.328;2022-07-06T08:49:06;15.63;;;12.98;;
29984;SDS011;17387;42.690;23.328;2022-07-06T08:51:34;15.60;;;12.80;;
29984;SDS011;17387;42.690;23.328;2022-07-06T08:54:02;15.10;;;13.23;;
29984;SDS011;17387;42.690;23.328;2022-07-06T08:56:28;14.85;;;12.80;;
29984;SDS011;17387;42.690;23.328;2022-07-06T08:58:54;12.95;;;11.27;;
29984;SDS011;17387;42.690;23.328;2022-07-06T09:01:20;13.10;;;11.80;;
29984;SDS011;17387;42.690;23.328;2022-07-06T09:03:47;18.50;;;13.27;;
29984;SDS011;17387;42.690;23.328;2022-07-06T09:06:16;15.27;;;13.68;;
29984;SDS011;17387;42.690;23.328;2022-07-06T09:08:44;15.18;;;12.98;;
29984;SDS011;17387;42.690;23.328;2022-07-06T09:11:11;18.58;;;13.80;;
29984;SDS011;17387;42.690;23.328;2022-07-06T09:13:37;18.00;;;14.15;;
29984;SDS011;17387;42.690;23.328;2022-07-06T09:16:12;17.73;;;14.23;;
29984;SDS011;17387;42.690;23.328;2022-07-06T09:18:39;19.25;;;14.73;;
29984;SDS011;17387;42.690;23.328;2022-07-06T09:21:07;21.23;;;14.88;;
29984;SDS011;17387;42.690;23.328;2022-07-06T09:23:33;18.38;;;14.95;;
29984;SDS011;17387;42.690;23.328;2022-07-06T09:26:01;16.67;;;15.07;;
29984;SDS011;17387;42.690;23.328;2022-07-06T09:28:42;16.63;;;14.38;;
29984;SDS011;17387;42.690;23.328;2022-07-06T09:31:08;17.55;;;14.32;;
29984;SDS011;17387;42.690;23.328;2022-07-06T09:33:34;15.50;;;13.90;;
29984;SDS011;17387;42.690;23.328;2022-07-06T09:36:00;17.25;;;14.10;;
29984;SDS011;17387;42.690;23.328;2022-07-06T09:38:27;18.42;;;13.75;;
29984;SDS011;17387;42.690;23.328;2022-07-06T09:40:53;17.73;;;14.93;;
29984;SDS011;17387;42.690;23.328;2022-07-06T09:43:19;17.83;;;13.60;;
29984;SDS011;17387;42.690;23.328;2022-07-06T09:45:49;18.98;;;14.52;;
29984;SDS011;17387;42.690;23.328;2022-07-06T09:48:17;17.50;;;15.57;;
29984;SDS011;17387;42.690;23.328;2022-07-06T09:50:51;18.38;;;16.50;;
29984;SDS011;17387;42.690;23.328;2022-07-06T09:53:18;18.17;;;16.27;;
29984;SDS011;17387;42.690;23.328;2022-07-06T09:55:48;18.00;;;16.10;;
29984;SDS011;17387;42.690;23.328;2022-07-06T09:58:19;19.13;;;17.15;;
29984;SDS011;17387;42.690;23.328;2022-07-06T10:00:45;20.40;;;17.60;;
29984;SDS011;17387;42.690;23.328;2022-07-06T10:03:13;20.50;;;16.77;;
29984;SDS011;17387;42.690;23.328;2022-07-06T10:05:41;18.30;;;16.40;;
29984;SDS011;17387;42.690;23.328;2022-07-06T10:08:08;18.13;;;16.23;;
29984;SDS011;17387;42.690;23.328;2022-07-06T10:10:34;19.02;;;17.05;;
29984;SDS011;17387;42.690;23.328;2022-07-06T10:13:01;19.30;;;17.33;;
29984;SDS011;17387;42.690;23.328;2022-07-06T10:15:29;17.45;;;15.65;;
29984;SDS011;17387;42.690;23.328;2022-07-06T10:18:01;18.15;;;15.68;;
29984;SDS011;17387;42.690;23.328;2022-07-06T10:20:32;20.58;;;16.60;;
29984;SDS011;17387;42.690;23.328;2022-07-06T10:23:02;23.83;;;17.73;;
29984;SDS011;17387;42.690;23.328;2022-07-06T10:25:28;17.42;;;15.65;;
29984;SDS011;17387;42.690;23.328;2022-07-06T10:27:55;19.40;;;16.98;;
29984;SDS011;17387;42.690;23.328;2022-07-06T10:30:21;20.05;;;17.95;;
29984;SDS011;17387;42.690;23.328;2022-07-06T10:32:48;18.85;;;16.45;;
29984;SDS011;17387;42.690;23.328;2022-07-06T10:35:16;19.80;;;16.40;;
29984;SDS011;17387;42.690;23.328;2022-07-06T10:37:43;17.90;;;16.20;;
29984;SDS011;17387;42.690;23.328;2022-07-06T10:40:09;19.95;;;16.48;;
29984;SDS011;17387;42.690;23.328;2022-07-06T10:50:50;18.60;;;15.38;;
29984;SDS011;17387;42.690;23.328;2022-07-06T10:53:21;16.42;;;14.70;;
29984;SDS011;17387;42.690;23.328;2022-07-06T10:55:49;16.38;;;14.68;;
29984;SDS011;17387;42.690;23.328;2022-07-06T11:01:00;16.80;;;15.00;;
29984;SDS011;17387;42.690;23.328;2022-07-06T11:08:47;16.98;;;15.38;;
29984;SDS011;17387;42.690;23.328;2022-07-06T11:14:14;15.98;;;14.30;;
29984;SDS011;17387;42.690;23.328;2022-07-06T11:19:17;18.77;;;14.40;;
29984;SDS011;17387;42.690;23.328;2022-07-06T11:21:51;16.00;;;14.23;;
29984;SDS011;17387;42.690;23.328;2022-07-06T11:24:18;17.02;;;15.27;;
29984;SDS011;17387;42.690;23.328;2022-07-06T11:26:46;17.02;;;14.82;;
29984;SDS011;17387;42.690;23.328;2022-07-06T11:29:13;18.70;;;16.92;;
29984;SDS011;17387;42.690;23.328;2022-07-06T11:31:41;18.25;;;16.50;;
29984;SDS011;17387;42.690;23.328;2022-07-06T11:34:08;19.13;;;16.30;;
29984;SDS011;17387;42.690;23.328;2022-07-06T11:36:35;19.58;;;17.55;;
29984;SDS011;17387;42.690;23.328;2022-07-06T11:39:01;19.75;;;17.75;;
29984;SDS011;17387;42.690;23.328;2022-07-06T11:41:28;15.18;;;13.70;;
29984;SDS011;17387;42.690;23.328;2022-07-06T11:43:53;16.65;;;14.07;;
29984;SDS011;17387;42.690;23.328;2022-07-06T11:48:49;19.55;;;15.93;;
29984;SDS011;17387;42.690;23.328;2022-07-06T11:51:15;18.52;;;16.67;;
29984;SDS011;17387;42.690;23.328;2022-07-06T11:53:42;17.50;;;15.85;;
29984;SDS011;17387;42.690;23.328;2022-07-06T11:56:09;17.15;;;15.35;;
29984;SDS011;17387;42.690;23.328;2022-07-06T11:58:35;17.80;;;16.10;;
29984;SDS011;17387;42.690;23.328;2022-07-06T12:01:10;16.90;;;15.35;;
29984;SDS011;17387;42.690;23.328;2022-07-06T12:03:36;16.88;;;15.18;;
29984;SDS011;17387;42.690;23.328;2022-07-06T12:06:02;18.80;;;16.90;;
29984;SDS011;17387;42.690;23.328;2022-07-06T12:08:29;17.38;;;15.68;;
29984;SDS011;17387;42.690;23.328;2022-07-06T12:10:54;17.67;;;15.88;;
29984;SDS011;17387;42.690;23.328;2022-07-06T12:13:20;15.88;;;14.27;;
29984;SDS011;17387;42.690;23.328;2022-07-06T12:15:46;15.57;;;14.07;;
29984;SDS011;17387;42.690;23.328;2022-07-06T12:18:11;15.68;;;13.70;;
29984;SDS011;17387;42.690;23.328;2022-07-06T12:20:37;14.63;;;13.23;;
29984;SDS011;17387;42.690;23.328;2022-07-06T12:23:04;13.95;;;12.65;;
29984;SDS011;17387;42.690;23.328;2022-07-06T12:25:34;14.25;;;12.88;;
29984;SDS011;17387;42.690;23.328;2022-07-06T12:28:00;13.80;;;12.40;;
29984;SDS011;17387;42.690;23.328;2022-07-06T12:30:26;13.20;;;11.90;;
29984;SDS011;17387;42.690;23.328;2022-07-06T12:33:13;15.77;;;13.52;;
29984;SDS011;17387;42.690;23.328;2022-07-06T12:35:48;13.73;;;12.25;;
29984;SDS011;17387;42.690;23.328;2022-07-06T12:38:21;13.35;;;12.10;;
29984;SDS011;17387;42.690;23.328;2022-07-06T12:40:52;13.25;;;11.85;;
29984;SDS011;17387;42.690;23.328;2022-07-06T12:46:23;11.50;;;10.50;;
29984;SDS011;17387;42.690;23.328;2022-07-06T12:48:56;13.30;;;10.90;;
29984;SDS011;17387;42.690;23.328;2022-07-06T12:51:23;11.38;;;10.35;;
29984;SDS011;17387;42.690;23.328;2022-07-06T12:53:50;11.18;;;9.90;;
29984;SDS011;17387;42.690;23.328;2022-07-06T12:56:16;12.27;;;9.98;;
29984;SDS011;17387;42.690;23.328;2022-07-06T12:59:01;11.07;;;9.82;;
29984;SDS011;17387;42.690;23.328;2022-07-06T13:01:26;10.73;;;9.27;;
29984;SDS011;17387;42.690;23.328;2022-07-06T13:03:55;11.05;;;8.82;;
29984;SDS011;17387;42.690;23.328;2022-07-06T13:09:14;9.75;;;8.77;;
29984;SDS011;17387;42.690;23.328;2022-07-06T13:11:41;9.45;;;8.15;;
29984;SDS011;17387;42.690;23.328;2022-07-06T13:14:06;10.90;;;7.97;;
29984;SDS011;17387;42.690;23.328;2022-07-06T13:16:34;9.13;;;6.32;;
29984;SDS011;17387;42.690;23.328;2022-07-06T13:19:00;7.18;;;6.32;;
29984;SDS011;17387;42.690;23.328;2022-07-06T13:21:26;8.07;;;6.72;;
29984;SDS011;17387;42.690;23.328;2022-07-06T13:23:52;6.97;;;6.35;;
29984;SDS011;17387;42.690;23.328;2022-07-06T13:26:17;6.88;;;6.18;;
29984;SDS011;17387;42.690;23.328;2022-07-06T13:28:43;7.90;;;5.88;;
29984;SDS011;17387;42.690;23.328;2022-07-06T13:31:08;6.35;;;5.32;;
29984;SDS011;17387;42.690;23.328;2022-07-06T13:33:34;7.57;;;5.57;;
29984;SDS011;17387;42.690;23.328;2022-07-06T13:36:00;8.55;;;5.13;;
29984;SDS011;17387;42.690;23.328;2022-07-06T13:38:26;4.53;;;4.03;;
29984;SDS011;17387;42.690;23.328;2022-07-06T13:40:51;4.65;;;4.20;;
29984;SDS011;17387;42.690;23.328;2022-07-06T13:43:17;5.47;;;4.43;;
29984;SDS011;17387;42.690;23.328;2022-07-06T13:45:43;5.13;;;3.80;;
29984;SDS011;17387;42.690;23.328;2022-07-06T13:48:08;4.68;;;3.92;;
29984;SDS011;17387;42.690;23.328;2022-07-06T13:50:34;5.55;;;4.00;;
29984;SDS011;17387;42.690;23.328;2022-07-06T13:52:59;5.63;;;3.72;;
29984;SDS011;17387;42.690;23.328;2022-07-06T13:55:25;4.68;;;3.88;;
29984;SDS011;17387;42.690;23.328;2022-07-06T13:57:51;4.85;;;3.58;;
29984;SDS011;17387;42.690;23.328;2022-07-06T14:00:16;10.82;;;3.60;;
29984;SDS011;17387;42.690;23.328;2022-07-06T14:02:43;3.65;;;3.25;;
29984;SDS011;17387;42.690;23.328;2022-07-06T14:05:11;5.00;;;3.47;;
29984;SDS011;17387;42.690;23.328;2022-07-06T14:07:37;5.03;;;3.40;;
29984;SDS011;17387;42.690;23.328;2022-07-06T14:10:03;3.42;;;3.03;;
29984;SDS011;17387;42.690;23.328;2022-07-06T14:12:29;9.63;;;3.30;;
29984;SDS011;17387;42.690;23.328;2022-07-06T14:14:54;3.30;;;2.72;;
29984;SDS011;17387;42.690;23.328;2022-07-06T14:17:20;3.17;;;2.85;;
29984;SDS011;17387;42.690;23.328;2022-07-06T14:19:46;4.25;;;3.17;;
29984;SDS011;17387;42.690;23.328;2022-07-06T14:22:12;3.50;;;3.20;;
29984;SDS011;17387;42.690;23.328;2022-07-06T14:24:38;4.30;;;3.15;;
29984;SDS011;17387;42.690;23.328;2022-07-06T14:27:03;4.80;;;3.08;;
29984;SDS011;17387;42.690;23.328;2022-07-06T14:29:29;5.07;;;2.95;;
29984;SDS011;17387;42.690;23.328;2022-07-06T14:31:54;4.70;;;2.90;;
29984;SDS011;17387;42.690;23.328;2022-07-06T14:34:20;3.50;;;2.70;;
29984;SDS011;17387;42.690;23.328;2022-07-06T14:36:45;7.35;;;3.10;;
29984;SDS011;17387;42.690;23.328;2022-07-06T14:39:10;5.35;;;2.72;;
29984;SDS011;17387;42.690;23.328;2022-07-06T14:41:37;3.05;;;2.65;;